sensor_id;sensor_type;location;lat;lon;timestamp;P1;durP1;ratioP1;P2;durP2;ratioP2
7563;SDS011;3823;53.586;10.040;2022-09-09T00:15:19;52.45;;;31.95;;
7563;SDS011;3823;53.586;10.040;2022-09-09T00:17:51;58.38;;;33.00;;
7563;SDS011;3823;53.586;10.040;2022-09-09T00:23:24;55.63;;;31.63;;
7563;SDS011;3823;53.586;10.040;2022-09-09T00:28:28;62.75;;;32.58;;
7563;SDS011;3823;53.586;10.040;2022-09-09T00:30:59;58.92;;;31.65;;
7563;SDS011;3823;53.586;10.040;2022-09-09T00:33:32;56.10;;;31.75;;
7563;SDS011;3823;53.586;10.040;2022-09-09T00:36:00;62.95;;;30.85;;
7563;SDS011;3823;53.586;10.040;2022-09-09T00:38:33;67.43;;;32.70;;
7563;SDS011;3823;53.586;10.040;2022-09-09T00:41:04;61.92;;;32.15;;
7563;SDS011;3823;53.586;10.040;2022-09-09T00:44:36;63.35;;;32.33;;
7563;SDS011;3823;53.586;10.040;2022-09-09T00:50:03;66.28;;;32.00;;
7563;SDS011;3823;53.586;10.040;2022-09-09T00:55:21;66.63;;;32.88;;
7563;SDS011;3823;53.586;10.040;2022-09-09T00:57:57;53.88;;;30.20;;
7563;SDS011;3823;53.586;10.040;2022-09-09T01:00:27;60.30;;;29.88;;
7563;SDS011;3823;53.586;10.040;2022-09-09T01:10:56;62.63;;;25.98;;
7563;SDS011;3823;53.586;10.040;2022-09-09T01:15:59;78.40;;;29.48;;
7563;SDS011;3823;53.586;10.040;2022-09-09T01:18:37;58.13;;;26.83;;
7563;SDS011;3823;53.586;10.040;2022-09-09T01:26:59;49.50;;;22.70;;
7563;SDS011;3823;53.586;10.040;2022-09-09T01:29:27;47.10;;;25.33;;
7563;SDS011;3823;53.586;10.040;2022-09-09T01:31:57;44.50;;;24.40;;
7563;SDS011;3823;53.586;10.040;2022-09-09T01:34:25;43.47;;;23.40;;
7563;SDS011;3823;53.586;10.040;2022-09-09T01:37:05;53.30;;;25.58;;
7563;SDS011;3823;53.586;10.040;2022-09-09T01:39:36;49.85;;;24.05;;
7563;SDS011;3823;53.586;10.040;2022-09-09T01:42:04;69.97;;;26.08;;
7563;SDS011;3823;53.586;10.040;2022-09-09T01:44:32;59.22;;;24.40;;
7563;SDS011;3823;53.586;10.040;2022-09-09T01:47:00;44.15;;;23.27;;
7563;SDS011;3823;53.586;10.040;2022-09-09T01:49:26;67.32;;;25.10;;
7563;SDS011;3823;53.586;10.040;2022-09-09T01:51:52;51.45;;;23.02;;
7563;SDS011;3823;53.586;10.040;2022-09-09T01:54:20;75.82;;;25.48;;
7563;SDS011;3823;53.586;10.040;2022-09-09T01:59:28;52.15;;;26.45;;
7563;SDS011;3823;53.586;10.040;2022-09-09T02:02:43;47.70;;;27.80;;
7563;SDS011;3823;53.586;10.040;2022-09-09T02:07:41;91.75;;;27.70;;
7563;SDS011;3823;53.586;10.040;2022-09-09T02:10:12;111.82;;;28.45;;
7563;SDS011;3823;53.586;10.040;2022-09-09T02:12:46;53.05;;;24.95;;
7563;SDS011;3823;53.586;10.040;2022-09-09T02:16:02;60.45;;;26.55;;
7563;SDS011;3823;53.586;10.040;2022-09-09T02:18:08;71.07;;;28.73;;
7563;SDS011;3823;53.586;10.040;2022-09-09T02:20:38;47.42;;;24.80;;
7563;SDS011;3823;53.586;10.040;2022-09-09T02:23:05;49.42;;;24.35;;
7563;SDS011;3823;53.586;10.040;2022-09-09T02:25:33;47.10;;;25.80;;
7563;SDS011;3823;53.586;10.040;2022-09-09T02:28:00;44.03;;;23.63;;
7563;SDS011;3823;53.586;10.040;2022-09-09T02:30:28;42.85;;;25.40;;
7563;SDS011;3823;53.586;10.040;2022-09-09T02:32:57;38.72;;;22.40;;
7563;SDS011;3823;53.586;10.040;2022-09-09T02:35:24;48.08;;;25.80;;
7563;SDS011;3823;53.586;10.040;2022-09-09T02:37:51;41.70;;;23.20;;
7563;SDS011;3823;53.586;10.040;2022-09-09T02:40:20;43.83;;;21.58;;
7563;SDS011;3823;53.586;10.040;2022-09-09T02:42:47;48.70;;;25.75;;
7563;SDS011;3823;53.586;10.040;2022-09-09T02:45:18;48.00;;;24.13;;
7563;SDS011;3823;53.586;10.040;2022-09-09T02:47:56;45.55;;;24.35;;
7563;SDS011;3823;53.586;10.040;2022-09-09T02:50:58;47.72;;;24.40;;
7563;SDS011;3823;53.586;10.040;2022-09-09T02:53:39;47.50;;;25.60;;
7563;SDS011;3823;53.586;10.040;2022-09-09T02:56:22;40.55;;;21.83;;
7563;SDS011;3823;53.586;10.040;2022-09-09T02:58:50;39.05;;;21.60;;
7563;SDS011;3823;53.586;10.040;2022-09-09T03:01:16;35.20;;;23.40;;
7563;SDS011;3823;53.586;10.040;2022-09-09T03:03:42;35.30;;;22.75;;
7563;SDS011;3823;53.586;10.040;2022-09-09T03:06:09;37.78;;;24.13;;
7563;SDS011;3823;53.586;10.040;2022-09-09T03:08:36;40.75;;;22.70;;
7563;SDS011;3823;53.586;10.040;2022-09-09T03:11:02;43.05;;;21.27;;
7563;SDS011;3823;53.586;10.040;2022-09-09T03:13:28;35.42;;;21.00;;
7563;SDS011;3823;53.586;10.040;2022-09-09T03:15:54;35.60;;;21.27;;
7563;SDS011;3823;53.586;10.040;2022-09-09T03:18:20;35.00;;;18.95;;
7563;SDS011;3823;53.586;10.040;2022-09-09T03:20:45;32.22;;;20.38;;
7563;SDS011;3823;53.586;10.040;2022-09-09T03:23:13;37.92;;;21.05;;
7563;SDS011;3823;53.586;10.040;2022-09-09T03:25:45;38.53;;;19.48;;
7563;SDS011;3823;53.586;10.040;2022-09-09T03:28:13;31.67;;;19.63;;
7563;SDS011;3823;53.586;10.040;2022-09-09T03:30:38;34.33;;;19.88;;
7563;SDS011;3823;53.586;10.040;2022-09-09T03:33:04;38.03;;;20.42;;
7563;SDS011;3823;53.586;10.040;2022-09-09T03:35:29;28.88;;;19.73;;
7563;SDS011;3823;53.586;10.040;2022-09-09T03:37:55;39.85;;;22.10;;
7563;SDS011;3823;53.586;10.040;2022-09-09T03:40:20;28.30;;;18.95;;
7563;SDS011;3823;53.586;10.040;2022-09-09T03:42:46;34.70;;;20.40;;
7563;SDS011;3823;53.586;10.040;2022-09-09T03:45:13;33.15;;;19.50;;
7563;SDS011;3823;53.586;10.040;2022-09-09T03:47:38;33.08;;;20.67;;
7563;SDS011;3823;53.586;10.040;2022-09-09T03:50:04;33.28;;;19.13;;
7563;SDS011;3823;53.586;10.040;2022-09-09T03:52:34;29.98;;;17.80;;
7563;SDS011;3823;53.586;10.040;2022-09-09T03:55:00;28.55;;;18.38;;
7563;SDS011;3823;53.586;10.040;2022-09-09T03:57:26;39.90;;;18.85;;
7563;SDS011;3823;53.586;10.040;2022-09-09T03:59:52;32.13;;;18.35;;
7563;SDS011;3823;53.586;10.040;2022-09-09T04:02:17;44.22;;;19.50;;
7563;SDS011;3823;53.586;10.040;2022-09-09T04:04:43;53.03;;;19.40;;
7563;SDS011;3823;53.586;10.040;2022-09-09T04:07:08;43.20;;;18.73;;
7563;SDS011;3823;53.586;10.040;2022-09-09T04:09:34;33.35;;;19.00;;
7563;SDS011;3823;53.586;10.040;2022-09-09T04:11:59;29.58;;;17.00;;
7563;SDS011;3823;53.586;10.040;2022-09-09T04:14:25;32.42;;;18.15;;
7563;SDS011;3823;53.586;10.040;2022-09-09T04:16:53;28.33;;;16.23;;
7563;SDS011;3823;53.586;10.040;2022-09-09T04:19:19;24.67;;;16.58;;
7563;SDS011;3823;53.586;10.040;2022-09-09T04:21:44;26.75;;;17.20;;
7563;SDS011;3823;53.586;10.040;2022-09-09T04:24:10;25.38;;;18.77;;
7563;SDS011;3823;53.586;10.040;2022-09-09T04:26:36;24.83;;;17.25;;
7563;SDS011;3823;53.586;10.040;2022-09-09T04:29:02;25.45;;;15.75;;
7563;SDS011;3823;53.586;10.040;2022-09-09T04:31:29;23.80;;;15.57;;
7563;SDS011;3823;53.586;10.040;2022-09-09T04:33:55;20.90;;;15.98;;
7563;SDS011;3823;53.586;10.040;2022-09-09T04:36:20;23.25;;;15.85;;
7563;SDS011;3823;53.586;10.040;2022-09-09T04:38:46;19.17;;;14.07;;
7563;SDS011;3823;53.586;10.040;2022-09-09T04:41:13;20.75;;;14.55;;
7563;SDS011;3823;53.586;10.040;2022-09-09T04:43:39;19.33;;;15.38;;
7563;SDS011;3823;53.586;10.040;2022-09-09T04:46:05;22.15;;;15.07;;
7563;SDS011;3823;53.586;10.040;2022-09-09T04:48:31;19.63;;;15.10;;
7563;SDS011;3823;53.586;10.040;2022-09-09T04:50:58;26.15;;;16.85;;
7563;SDS011;3823;53.586;10.040;2022-09-09T04:53:25;20.80;;;15.43;;
7563;SDS011;3823;53.586;10.040;2022-09-09T04:56:12;21.42;;;15.10;;
7563;SDS011;3823;53.586;10.040;2022-09-09T04:58:40;23.00;;;16.08;;
7563;SDS011;3823;53.586;10.040;2022-09-09T05:03:40;21.67;;;15.45;;
7563;SDS011;3823;53.586;10.040;2022-09-09T05:06:08;24.33;;;17.35;;
7563;SDS011;3823;53.586;10.040;2022-09-09T05:08:38;22.75;;;14.68;;
7563;SDS011;3823;53.586;10.040;2022-09-09T05:13:43;19.95;;;14.55;;
7563;SDS011;3823;53.586;10.040;2022-09-09T05:16:10;21.23;;;15.23;;
7563;SDS011;3823;53.586;10.040;2022-09-09T05:18:36;20.77;;;14.18;;
7563;SDS011;3823;53.586;10.040;2022-09-09T05:21:02;20.55;;;14.30;;
7563;SDS011;3823;53.586;10.040;2022-09-09T05:23:28;17.67;;;14.10;;
7563;SDS011;3823;53.586;10.040;2022-09-09T05:25:57;18.98;;;13.77;;
7563;SDS011;3823;53.586;10.040;2022-09-09T05:28:26;18.88;;;15.05;;
7563;SDS011;3823;53.586;10.040;2022-09-09T05:30:56;16.55;;;13.73;;
7563;SDS011;3823;53.586;10.040;2022-09-09T05:33:23;19.08;;;12.90;;
7563;SDS011;3823;53.586;10.040;2022-09-09T05:38:48;21.08;;;14.05;;
7563;SDS011;3823;53.586;10.040;2022-09-09T05:41:15;20.08;;;14.13;;
7563;SDS011;3823;53.586;10.040;2022-09-09T05:43:42;19.02;;;15.40;;
7563;SDS011;3823;53.586;10.040;2022-09-09T05:46:19;23.98;;;15.77;;
7563;SDS011;3823;53.586;10.040;2022-09-09T05:48:47;17.88;;;12.35;;
7563;SDS011;3823;53.586;10.040;2022-09-09T05:51:16;17.40;;;13.98;;
7563;SDS011;3823;53.586;10.040;2022-09-09T05:53:47;20.77;;;13.73;;
7563;SDS011;3823;53.586;10.040;2022-09-09T05:56:14;19.67;;;13.77;;
7563;SDS011;3823;53.586;10.040;2022-09-09T05:58:42;17.90;;;12.13;;
7563;SDS011;3823;53.586;10.040;2022-09-09T06:01:16;16.17;;;12.45;;
7563;SDS011;3823;53.586;10.040;2022-09-09T06:03:43;14.32;;;12.45;;
7563;SDS011;3823;53.586;10.040;2022-09-09T06:06:10;12.20;;;10.70;;
7563;SDS011;3823;53.586;10.040;2022-09-09T06:08:39;16.10;;;11.75;;
7563;SDS011;3823;53.586;10.040;2022-09-09T06:11:09;21.55;;;12.65;;
7563;SDS011;3823;53.586;10.040;2022-09-09T06:13:40;14.82;;;11.82;;
7563;SDS011;3823;53.586;10.040;2022-09-09T06:16:09;13.38;;;11.25;;
7563;SDS011;3823;53.586;10.040;2022-09-09T06:18:37;19.08;;;13.75;;
7563;SDS011;3823;53.586;10.040;2022-09-09T06:21:06;15.57;;;10.80;;
7563;SDS011;3823;53.586;10.040;2022-09-09T06:23:46;12.38;;;10.38;;
7563;SDS011;3823;53.586;10.040;2022-09-09T06:26:23;14.75;;;10.57;;
7563;SDS011;3823;53.586;10.040;2022-09-09T06:28:51;15.68;;;10.75;;
7563;SDS011;3823;53.586;10.040;2022-09-09T06:31:18;10.82;;;9.30;;
7563;SDS011;3823;53.586;10.040;2022-09-09T06:33:49;12.98;;;9.57;;
7563;SDS011;3823;53.586;10.040;2022-09-09T06:36:21;12.18;;;8.88;;
7563;SDS011;3823;53.586;10.040;2022-09-09T06:38:51;12.35;;;10.48;;
7563;SDS011;3823;53.586;10.040;2022-09-09T06:41:17;13.80;;;9.00;;
7563;SDS011;3823;53.586;10.040;2022-09-09T06:43:44;17.40;;;10.02;;
7563;SDS011;3823;53.586;10.040;2022-09-09T06:48:52;12.32;;;9.32;;
7563;SDS011;3823;53.586;10.040;2022-09-09T06:51:20;13.40;;;9.13;;
7563;SDS011;3823;53.586;10.040;2022-09-09T06:53:49;11.48;;;9.95;;
7563;SDS011;3823;53.586;10.040;2022-09-09T06:58:41;17.23;;;9.05;;
7563;SDS011;3823;53.586;10.040;2022-09-09T07:01:09;13.43;;;9.10;;
7563;SDS011;3823;53.586;10.040;2022-09-09T07:03:37;13.23;;;8.98;;
7563;SDS011;3823;53.586;10.040;2022-09-09T07:06:04;9.80;;;8.77;;
7563;SDS011;3823;53.586;10.040;2022-09-09T07:08:30;11.07;;;9.35;;
7563;SDS011;3823;53.586;10.040;2022-09-09T07:11:03;9.65;;;8.23;;
7563;SDS011;3823;53.586;10.040;2022-09-09T07:13:30;13.38;;;9.15;;
7563;SDS011;3823;53.586;10.040;2022-09-09T07:16:02;12.73;;;8.95;;
7563;SDS011;3823;53.586;10.040;2022-09-09T07:18:35;8.13;;;6.95;;
7563;SDS011;3823;53.586;10.040;2022-09-09T07:21:02;10.00;;;7.38;;
7563;SDS011;3823;53.586;10.040;2022-09-09T07:23:28;8.32;;;7.57;;
7563;SDS011;3823;53.586;10.040;2022-09-09T07:25:55;9.23;;;6.95;;
7563;SDS011;3823;53.586;10.040;2022-09-09T07:28:21;8.50;;;7.80;;
7563;SDS011;3823;53.586;10.040;2022-09-09T07:30:57;11.68;;;7.15;;
7563;SDS011;3823;53.586;10.040;2022-09-09T07:33:26;10.10;;;6.70;;
7563;SDS011;3823;53.586;10.040;2022-09-09T07:35:51;7.63;;;6.80;;
7563;SDS011;3823;53.586;10.040;2022-09-09T07:38:18;7.88;;;7.18;;
7563;SDS011;3823;53.586;10.040;2022-09-09T07:40:45;9.60;;;7.00;;
7563;SDS011;3823;53.586;10.040;2022-09-09T07:43:11;8.18;;;7.40;;
7563;SDS011;3823;53.586;10.040;2022-09-09T07:45:37;8.10;;;7.30;;
7563;SDS011;3823;53.586;10.040;2022-09-09T07:48:03;9.07;;;6.35;;
7563;SDS011;3823;53.586;10.040;2022-09-09T07:50:29;7.45;;;6.70;;
7563;SDS011;3823;53.586;10.040;2022-09-09T07:52:55;6.55;;;6.00;;
7563;SDS011;3823;53.586;10.040;2022-09-09T07:55:21;9.10;;;5.63;;
7563;SDS011;3823;53.586;10.040;2022-09-09T07:57:50;5.13;;;4.40;;
7563;SDS011;3823;53.586;10.040;2022-09-09T08:00:16;5.68;;;5.28;;
7563;SDS011;3823;53.586;10.040;2022-09-09T08:02:41;7.40;;;6.65;;
7563;SDS011;3823;53.586;10.040;2022-09-09T08:05:07;5.50;;;4.60;;
7563;SDS011;3823;53.586;10.040;2022-09-09T08:07:33;5.53;;;5.05;;
7563;SDS011;3823;53.586;10.040;2022-09-09T08:09:59;6.78;;;4.80;;
7563;SDS011;3823;53.586;10.040;2022-09-09T08:12:24;6.38;;;5.22;;
7563;SDS011;3823;53.586;10.040;2022-09-09T08:14:50;5.53;;;5.03;;
7563;SDS011;3823;53.586;10.040;2022-09-09T08:17:16;7.15;;;5.78;;
7563;SDS011;3823;53.586;10.040;2022-09-09T08:19:42;11.73;;;6.13;;
7563;SDS011;3823;53.586;10.040;2022-09-09T08:22:07;6.53;;;5.10;;
7563;SDS011;3823;53.586;10.040;2022-09-09T08:24:33;6.70;;;6.05;;
7563;SDS011;3823;53.586;10.040;2022-09-09T08:26:59;7.80;;;5.57;;
7563;SDS011;3823;53.586;10.040;2022-09-09T08:29:24;8.10;;;6.50;;
7563;SDS011;3823;53.586;10.040;2022-09-09T08:31:51;6.32;;;5.70;;
7563;SDS011;3823;53.586;10.040;2022-09-09T08:34:19;5.15;;;4.75;;
7563;SDS011;3823;53.586;10.040;2022-09-09T08:36:46;5.75;;;4.70;;
7563;SDS011;3823;53.586;10.040;2022-09-09T08:39:14;10.30;;;5.20;;
7563;SDS011;3823;53.586;10.040;2022-09-09T08:47:09;5.15;;;4.20;;
7563;SDS011;3823;53.586;10.040;2022-09-09T08:50:01;11.77;;;5.28;;
7563;SDS011;3823;53.586;10.040;2022-09-09T08:52:49;11.25;;;4.90;;
7563;SDS011;3823;53.586;10.040;2022-09-09T08:55:24;5.45;;;4.95;;
7563;SDS011;3823;53.586;10.040;2022-09-09T08:57:57;5.35;;;4.60;;
7563;SDS011;3823;53.586;10.040;2022-09-09T09:03:43;5.05;;;4.65;;
7563;SDS011;3823;53.586;10.040;2022-09-09T09:11:37;4.20;;;3.83;;
7563;SDS011;3823;53.586;10.040;2022-09-09T09:14:09;4.45;;;4.15;;
7563;SDS011;3823;53.586;10.040;2022-09-09T09:16:56;3.58;;;3.28;;
7563;SDS011;3823;53.586;10.040;2022-09-09T09:19:28;4.78;;;3.90;;
7563;SDS011;3823;53.586;10.040;2022-09-09T09:22:04;3.70;;;3.45;;
7563;SDS011;3823;53.586;10.040;2022-09-09T09:24:51;4.72;;;4.25;;
7563;SDS011;3823;53.586;10.040;2022-09-09T09:27:25;3.67;;;3.13;;
7563;SDS011;3823;53.586;10.040;2022-09-09T09:29:58;3.58;;;3.10;;
7563;SDS011;3823;53.586;10.040;2022-09-09T09:32:25;5.80;;;3.03;;
7563;SDS011;3823;53.586;10.040;2022-09-09T09:34:56;7.38;;;3.25;;
7563;SDS011;3823;53.586;10.040;2022-09-09T09:37:26;4.45;;;3.65;;
7563;SDS011;3823;53.586;10.040;2022-09-09T09:39:55;4.40;;;2.55;;
7563;SDS011;3823;53.586;10.040;2022-09-09T09:42:20;5.18;;;2.83;;
7563;SDS011;3823;53.586;10.040;2022-09-09T09:44:47;2.83;;;2.42;;
7563;SDS011;3823;53.586;10.040;2022-09-09T09:47:20;2.30;;;1.83;;
7563;SDS011;3823;53.586;10.040;2022-09-09T09:52:25;6.97;;;2.42;;
7563;SDS011;3823;53.586;10.040;2022-09-09T09:54:53;3.67;;;2.67;;
7563;SDS011;3823;53.586;10.040;2022-09-09T09:57:24;6.40;;;2.85;;
7563;SDS011;3823;53.586;10.040;2022-09-09T10:00:00;2.80;;;2.45;;
7563;SDS011;3823;53.586;10.040;2022-09-09T10:02:31;4.85;;;3.17;;
7563;SDS011;3823;53.586;10.040;2022-09-09T10:05:04;7.07;;;2.78;;
7563;SDS011;3823;53.586;10.040;2022-09-09T10:07:30;3.75;;;2.92;;
7563;SDS011;3823;53.586;10.040;2022-09-09T10:09:57;3.03;;;2.63;;
7563;SDS011;3823;53.586;10.040;2022-09-09T10:12:57;2.53;;;2.33;;
7563;SDS011;3823;53.586;10.040;2022-09-09T10:21:03;7.32;;;2.63;;
7563;SDS011;3823;53.586;10.040;2022-09-09T10:24:04;4.80;;;2.70;;
7563;SDS011;3823;53.586;10.040;2022-09-09T10:26:55;2.10;;;1.83;;
7563;SDS011;3823;53.586;10.040;2022-09-09T10:29:44;2.50;;;2.30;;
7563;SDS011;3823;53.586;10.040;2022-09-09T10:35:30;2.00;;;1.85;;
7563;SDS011;3823;53.586;10.040;2022-09-09T10:46:16;1.63;;;1.52;;
7563;SDS011;3823;53.586;10.040;2022-09-09T10:54:17;2.33;;;1.30;;
7563;SDS011;3823;53.586;10.040;2022-09-09T10:57:29;2.05;;;1.15;;
7563;SDS011;3823;53.586;10.040;2022-09-09T11:00:05;1.83;;;1.73;;
7563;SDS011;3823;53.586;10.040;2022-09-09T11:02:39;3.08;;;1.30;;
7563;SDS011;3823;53.586;10.040;2022-09-09T11:05:10;3.65;;;1.30;;
7563;SDS011;3823;53.586;10.040;2022-09-09T11:07:51;4.30;;;1.45;;
7563;SDS011;3823;53.586;10.040;2022-09-09T11:13:49;3.60;;;2.08;;
7563;SDS011;3823;53.586;10.040;2022-09-09T11:16:22;1.38;;;1.17;;
7563;SDS011;3823;53.586;10.040;2022-09-09T11:19:03;1.75;;;1.48;;
7563;SDS011;3823;53.586;10.040;2022-09-09T11:21:44;1.65;;;1.00;;
7563;SDS011;3823;53.586;10.040;2022-09-09T11:24:22;4.57;;;1.67;;
7563;SDS011;3823;53.586;10.040;2022-09-09T11:32:44;2.47;;;1.52;;
7563;SDS011;3823;53.586;10.040;2022-09-09T11:40:30;1.98;;;1.45;;
7563;SDS011;3823;53.586;10.040;2022-09-09T11:43:17;1.63;;;1.52;;
7563;SDS011;3823;53.586;10.040;2022-09-09T11:45:51;4.35;;;2.13;;
7563;SDS011;3823;53.586;10.040;2022-09-09T11:48:23;3.25;;;1.88;;
7563;SDS011;3823;53.586;10.040;2022-09-09T11:51:01;1.70;;;1.40;;
7563;SDS011;3823;53.586;10.040;2022-09-09T11:53:36;1.75;;;1.42;;
7563;SDS011;3823;53.586;10.040;2022-09-09T11:56:24;2.00;;;1.38;;
7563;SDS011;3823;53.586;10.040;2022-09-09T12:01:55;1.85;;;1.70;;
7563;SDS011;3823;53.586;10.040;2022-09-09T12:09:43;2.40;;;1.70;;
7563;SDS011;3823;53.586;10.040;2022-09-09T12:12:21;2.63;;;1.60;;
7563;SDS011;3823;53.586;10.040;2022-09-09T12:14:58;2.25;;;1.67;;
7563;SDS011;3823;53.586;10.040;2022-09-09T12:17:25;1.75;;;1.65;;
7563;SDS011;3823;53.586;10.040;2022-09-09T12:20:03;2.45;;;2.25;;
7563;SDS011;3823;53.586;10.040;2022-09-09T12:27:57;4.00;;;1.20;;
7563;SDS011;3823;53.586;10.040;2022-09-09T12:30:28;2.30;;;1.58;;
7563;SDS011;3823;53.586;10.040;2022-09-09T12:33:08;1.60;;;1.50;;
7563;SDS011;3823;53.586;10.040;2022-09-09T12:35:37;2.00;;;1.90;;
7563;SDS011;3823;53.586;10.040;2022-09-09T12:38:04;2.65;;;1.95;;
7563;SDS011;3823;53.586;10.040;2022-09-09T12:40:33;3.00;;;1.98;;
7563;SDS011;3823;53.586;10.040;2022-09-09T12:43:14;3.92;;;2.50;;
7563;SDS011;3823;53.586;10.040;2022-09-09T12:45:46;2.15;;;1.90;;
7563;SDS011;3823;53.586;10.040;2022-09-09T12:48:15;3.35;;;2.40;;
7563;SDS011;3823;53.586;10.040;2022-09-09T12:50:50;2.83;;;2.58;;
7563;SDS011;3823;53.586;10.040;2022-09-09T12:53:21;2.40;;;2.20;;
7563;SDS011;3823;53.586;10.040;2022-09-09T12:56:09;5.72;;;2.33;;
7563;SDS011;3823;53.586;10.040;2022-09-09T12:58:48;2.88;;;2.67;;
7563;SDS011;3823;53.586;10.040;2022-09-09T13:01:21;3.22;;;2.25;;
7563;SDS011;3823;53.586;10.040;2022-09-09T13:03:52;3.00;;;2.30;;
7563;SDS011;3823;53.586;10.040;2022-09-09T13:06:24;3.67;;;2.90;;
7563;SDS011;3823;53.586;10.040;2022-09-09T13:08:55;2.72;;;2.53;;
7563;SDS011;3823;53.586;10.040;2022-09-09T13:11:34;3.25;;;2.97;;
7563;SDS011;3823;53.586;10.040;2022-09-09T13:14:12;5.90;;;3.15;;
7563;SDS011;3823;53.586;10.040;2022-09-09T13:16:54;3.40;;;2.80;;
7563;SDS011;3823;53.586;10.040;2022-09-09T13:19:21;3.30;;;3.10;;
7563;SDS011;3823;53.586;10.040;2022-09-09T13:21:47;2.60;;;2.50;;
7563;SDS011;3823;53.586;10.040;2022-09-09T13:24:30;4.13;;;3.72;;
7563;SDS011;3823;53.586;10.040;2022-09-09T13:27:01;6.20;;;3.33;;
7563;SDS011;3823;53.586;10.040;2022-09-09T13:29:29;2.80;;;2.40;;
7563;SDS011;3823;53.586;10.040;2022-09-09T13:32:03;2.75;;;2.53;;
7563;SDS011;3823;53.586;10.040;2022-09-09T13:34:49;5.07;;;2.78;;
7563;SDS011;3823;53.586;10.040;2022-09-09T13:37:20;6.05;;;2.50;;
7563;SDS011;3823;53.586;10.040;2022-09-09T13:40:02;3.67;;;3.38;;
7563;SDS011;3823;53.586;10.040;2022-09-09T13:42:31;4.07;;;3.45;;
7563;SDS011;3823;53.586;10.040;2022-09-09T13:45:02;4.90;;;3.85;;
7563;SDS011;3823;53.586;10.040;2022-09-09T13:47:33;5.22;;;4.78;;
7563;SDS011;3823;53.586;10.040;2022-09-09T13:50:17;6.05;;;3.72;;
7563;SDS011;3823;53.586;10.040;2022-09-09T13:52:45;5.13;;;3.53;;
7563;SDS011;3823;53.586;10.040;2022-09-09T13:55:12;5.60;;;3.45;;
7563;SDS011;3823;53.586;10.040;2022-09-09T13:57:37;4.82;;;4.15;;
7563;SDS011;3823;53.586;10.040;2022-09-09T14:00:03;8.50;;;3.85;;
7563;SDS011;3823;53.586;10.040;2022-09-09T14:02:32;6.00;;;4.28;;
7563;SDS011;3823;53.586;10.040;2022-09-09T14:04:58;5.68;;;4.63;;
7563;SDS011;3823;53.586;10.040;2022-09-09T14:07:24;7.43;;;5.00;;
7563;SDS011;3823;53.586;10.040;2022-09-09T14:09:50;4.50;;;4.20;;
7563;SDS011;3823;53.586;10.040;2022-09-09T14:12:16;6.97;;;5.45;;
7563;SDS011;3823;53.586;10.040;2022-09-09T14:14:43;5.70;;;5.20;;
7563;SDS011;3823;53.586;10.040;2022-09-09T14:17:09;5.43;;;4.72;;
7563;SDS011;3823;53.586;10.040;2022-09-09T14:19:35;4.72;;;4.38;;
7563;SDS011;3823;53.586;10.040;2022-09-09T14:22:02;5.13;;;4.40;;
7563;SDS011;3823;53.586;10.040;2022-09-09T14:24:27;4.97;;;4.57;;
7563;SDS011;3823;53.586;10.040;2022-09-09T14:26:53;6.07;;;4.63;;
7563;SDS011;3823;53.586;10.040;2022-09-09T14:29:19;5.32;;;4.88;;
7563;SDS011;3823;53.586;10.040;2022-09-09T14:31:45;6.40;;;5.47;;
7563;SDS011;3823;53.586;10.040;2022-09-09T14:34:10;4.47;;;3.97;;
7563;SDS011;3823;53.586;10.040;2022-09-09T14:36:37;4.03;;;3.72;;
7563;SDS011;3823;53.586;10.040;2022-09-09T14:39:03;4.85;;;4.32;;
7563;SDS011;3823;53.586;10.040;2022-09-09T14:41:29;3.95;;;3.65;;
7563;SDS011;3823;53.586;10.040;2022-09-09T14:43:55;9.82;;;4.63;;
7563;SDS011;3823;53.586;10.040;2022-09-09T14:46:21;2.85;;;2.65;;
7563;SDS011;3823;53.586;10.040;2022-09-09T14:48:46;4.47;;;3.08;;
7563;SDS011;3823;53.586;10.040;2022-09-09T14:51:22;3.47;;;2.42;;
7563;SDS011;3823;53.586;10.040;2022-09-09T14:53:52;3.33;;;2.63;;
7563;SDS011;3823;53.586;10.040;2022-09-09T14:56:19;1.83;;;1.73;;
7563;SDS011;3823;53.586;10.040;2022-09-09T14:58:48;2.95;;;2.08;;
7563;SDS011;3823;53.586;10.040;2022-09-09T15:01:15;3.10;;;2.90;;
7563;SDS011;3823;53.586;10.040;2022-09-09T15:03:42;3.60;;;3.30;;
7563;SDS011;3823;53.586;10.040;2022-09-09T15:06:17;6.97;;;3.50;;
7563;SDS011;3823;53.586;10.040;2022-09-09T15:08:44;4.63;;;3.50;;
7563;SDS011;3823;53.586;10.040;2022-09-09T15:11:10;4.80;;;4.45;;
7563;SDS011;3823;53.586;10.040;2022-09-09T15:13:38;4.60;;;4.30;;
7563;SDS011;3823;53.586;10.040;2022-09-09T15:18:37;4.57;;;4.22;;
7563;SDS011;3823;53.586;10.040;2022-09-09T15:21:07;4.68;;;4.28;;
7563;SDS011;3823;53.586;10.040;2022-09-09T15:23:34;6.38;;;3.58;;
7563;SDS011;3823;53.586;10.040;2022-09-09T15:26:00;6.38;;;4.85;;
7563;SDS011;3823;53.586;10.040;2022-09-09T15:28:26;4.25;;;3.85;;
7563;SDS011;3823;53.586;10.040;2022-09-09T15:30:52;3.63;;;3.08;;
7563;SDS011;3823;53.586;10.040;2022-09-09T15:33:19;3.45;;;2.42;;
7563;SDS011;3823;53.586;10.040;2022-09-09T15:35:46;3.17;;;2.97;;
7563;SDS011;3823;53.586;10.040;2022-09-09T15:38:12;3.15;;;2.17;;
7563;SDS011;3823;53.586;10.040;2022-09-09T15:40:38;3.50;;;2.85;;
7563;SDS011;3823;53.586;10.040;2022-09-09T15:43:04;2.78;;;2.33;;
7563;SDS011;3823;53.586;10.040;2022-09-09T15:45:31;2.83;;;2.45;;
7563;SDS011;3823;53.586;10.040;2022-09-09T15:47:58;4.15;;;2.55;;
7563;SDS011;3823;53.586;10.040;2022-09-09T15:50:27;2.90;;;2.60;;
7563;SDS011;3823;53.586;10.040;2022-09-09T15:52:55;2.40;;;2.13;;
7563;SDS011;3823;53.586;10.040;2022-09-09T15:55:20;7.13;;;2.65;;
7563;SDS011;3823;53.586;10.040;2022-09-09T15:57:46;4.20;;;2.85;;
7563;SDS011;3823;53.586;10.040;2022-09-09T16:00:12;3.05;;;2.40;;
7563;SDS011;3823;53.586;10.040;2022-09-09T16:02:38;2.42;;;2.22;;
7563;SDS011;3823;53.586;10.040;2022-09-09T16:05:04;5.53;;;2.25;;
7563;SDS011;3823;53.586;10.040;2022-09-09T16:07:30;6.47;;;2.90;;
7563;SDS011;3823;53.586;10.040;2022-09-09T16:09:56;2.47;;;2.28;;
7563;SDS011;3823;53.586;10.040;2022-09-09T16:12:22;2.30;;;2.10;;
7563;SDS011;3823;53.586;10.040;2022-09-09T16:14:47;10.23;;;3.42;;
7563;SDS011;3823;53.586;10.040;2022-09-09T16:17:13;4.43;;;2.42;;
7563;SDS011;3823;53.586;10.040;2022-09-09T16:19:40;2.85;;;2.65;;
7563;SDS011;3823;53.586;10.040;2022-09-09T16:22:05;3.85;;;2.67;;
7563;SDS011;3823;53.586;10.040;2022-09-09T16:24:31;2.55;;;2.00;;
7563;SDS011;3823;53.586;10.040;2022-09-09T16:26:58;3.80;;;2.97;;
7563;SDS011;3823;53.586;10.040;2022-09-09T16:29:23;3.47;;;2.70;;
7563;SDS011;3823;53.586;10.040;2022-09-09T16:31:52;3.35;;;2.47;;
7563;SDS011;3823;53.586;10.040;2022-09-09T16:34:18;5.22;;;2.80;;
7563;SDS011;3823;53.586;10.040;2022-09-09T16:36:45;3.08;;;2.20;;
7563;SDS011;3823;53.586;10.040;2022-09-09T16:39:12;3.20;;;2.17;;
7563;SDS011;3823;53.586;10.040;2022-09-09T16:41:41;2.70;;;2.50;;
7563;SDS011;3823;53.586;10.040;2022-09-09T16:44:09;2.75;;;2.13;;
7563;SDS011;3823;53.586;10.040;2022-09-09T16:46:37;3.80;;;3.55;;
7563;SDS011;3823;53.586;10.040;2022-09-09T16:49:05;2.65;;;2.45;;
7563;SDS011;3823;53.586;10.040;2022-09-09T16:51:42;19.45;;;3.55;;
7563;SDS011;3823;53.586;10.040;2022-09-09T16:54:13;1.95;;;1.75;;
7563;SDS011;3823;53.586;10.040;2022-09-09T16:56:41;3.72;;;1.98;;
7563;SDS011;3823;53.586;10.040;2022-09-09T16:59:09;2.78;;;2.20;;
7563;SDS011;3823;53.586;10.040;2022-09-09T17:01:38;2.72;;;2.28;;
7563;SDS011;3823;53.586;10.040;2022-09-09T17:04:06;2.22;;;1.95;;
7563;SDS011;3823;53.586;10.040;2022-09-09T17:06:33;3.22;;;1.75;;
7563;SDS011;3823;53.586;10.040;2022-09-09T17:09:02;2.70;;;1.83;;
7563;SDS011;3823;53.586;10.040;2022-09-09T17:11:32;1.67;;;1.58;;
7563;SDS011;3823;53.586;10.040;2022-09-09T17:13:58;2.17;;;1.77;;
7563;SDS011;3823;53.586;10.040;2022-09-09T17:16:25;4.63;;;2.10;;
7563;SDS011;3823;53.586;10.040;2022-09-09T17:18:53;2.60;;;2.45;;